Aérodrome :
LOGIN :

S'inscrire | Disclaimer

   EN    FR    IT 

 










Légende :    VFR   VFR Marginal   IFR   IFR Intensif   IFR Très Intensif
Visi : 
Plafond : 
>= 8 km
>= 3000ft
5 à 8 km
1000 à 3000 ft
1500m à 5 km
500 à 1000 ft
800 à 1500m
200 à 500 ft
< 800m
< 200 ft
Symboles :   Orages  Brouillard  Fortes neiges  Fortes précipitations  Vent > 20 kt
SIGMETs :   Divers  Orages  Givrage  Turbulence  Onde Orograph.  Cendres Volcan.







- Altitude de l'aérodrome : 106 ft
- Code IATA : NRN


EDLV - Weeze

DERNIER METAR :
  • 231550Z 04004KT 360V080 9999 FEW040 17/10 Q1023

METARs EXPIRÉS :
  • 231520Z VRB04KT 9999 FEW036 18/10 Q1023
  • 231450Z 00000KT 9999 FEW036 18/09 Q1024
  • 231420Z VRB02KT 9999 FEW036 18/10 Q1024
  • 231350Z 34004KT 250V060 9999 FEW035 17/10 Q1024
  • 231320Z VRB03KT CAVOK 18/10 Q1024

TAF TAF EDLV
Valide du 23 à 12h jusqu'au 24 à 12h UTC


231100Z 2312/2412 VRB03KT 9999 SCT025
BECMG 2322/2324 3500 BR
TEMPO 2400/2407 2000 BCFG
PROB40
TEMPO 2401/2407 0500 FG OVC001
BECMG 2407/2410 04005KT 8000
Pas de NOTAMs connus pour ce terrain.



MET'MAP, la Météo Aéronautique d'un coup d'oeil ! - Copyright ORBIFLY Décembre 2007 - Disclaimer

ORBIFLY MET'MAP TEAM :

Programmation & Développement : Alexandra Zaïnal
Conception & Développement : Baudouin d'Aumeries
Co-Programmation & Développement : Marc-Olivier Méhu
Soutien technique & logistique : Manuel Goepfert

Contact : metmap@orbifly.com




SOURCES & CREDITS :

   NOAA